TVF60SE LIBD-LFPO
Flight info
| Callsign | TVF60SE |
|---|---|
| Flight time | 2h 8m |
| Altitude | 38000 |
| Route | PISIP DCT VIE DCT RUPAX DCT LURUT DCT OMETO DCT GARLO DCT CERVI DCT MOLUS DCT UNKIR DCT DJL |
| Aircraft | A320/M-SDE3FGHIRWY/LB1 |
Departure
| Time | 2026-04-25 18:15 |
|---|---|
| Airport | Bari Karol Wojtyła International Airport (LIBD) |
Arrival
| Time | 2026-04-25 20:23 |
|---|---|
| Airport | Paris-Orly Airport (LFPO) |
| Time | Latitude | Longitude | Altitude | Speed | Heading |
|---|---|---|---|---|---|
| 2026-04-25 18:03 | 41.13540 | 16.76402 | 136 ft | 0 kts | 158° |
| 2026-04-25 18:07 | 41.13555 | 16.76394 | 136 ft | 3 kts | 162° |
| 2026-04-25 18:07 | 41.13575 | 16.76387 | 136 ft | 3 kts | 171° |
| 2026-04-25 18:07 | 41.13595 | 16.76385 | 136 ft | 3 kts | 187° |
| 2026-04-25 18:08 | 41.13613 | 16.76391 | 136 ft | 3 kts | 222° |
| 2026-04-25 18:08 | 41.13620 | 16.76405 | 136 ft | 1 kts | 249° |
| 2026-04-25 18:08 | 41.13621 | 16.76408 | 136 ft | 0 kts | 249° |
| 2026-04-25 18:10 | 41.13620 | 16.76405 | 136 ft | 3 kts | 249° |
| 2026-04-25 18:10 | 41.13599 | 16.76329 | 136 ft | 10 kts | 249° |
| 2026-04-25 18:10 | 41.13572 | 16.76233 | 136 ft | 15 kts | 250° |
| 2026-04-25 18:11 | 41.13568 | 16.76102 | 136 ft | 15 kts | 309° |
| 2026-04-25 18:11 | 41.13637 | 16.75985 | 136 ft | 17 kts | 276° |
| 2026-04-25 18:11 | 41.13595 | 16.75815 | 138 ft | 21 kts | 249° |
| 2026-04-25 18:11 | 41.13541 | 16.75631 | 137 ft | 22 kts | 249° |
| 2026-04-25 18:12 | 41.13490 | 16.75449 | 143 ft | 20 kts | 250° |
| 2026-04-25 18:12 | 41.13439 | 16.75267 | 142 ft | 21 kts | 247° |
| 2026-04-25 18:12 | 41.13389 | 16.75088 | 148 ft | 20 kts | 250° |
| 2026-04-25 18:12 | 41.13340 | 16.74914 | 148 ft | 21 kts | 250° |
| 2026-04-25 18:13 | 41.13288 | 16.74732 | 149 ft | 21 kts | 249° |
| 2026-04-25 18:13 | 41.13239 | 16.74560 | 152 ft | 20 kts | 250° |
| 2026-04-25 18:13 | 41.13189 | 16.74385 | 154 ft | 20 kts | 249° |
| 2026-04-25 18:14 | 41.13246 | 16.74114 | 145 ft | 17 kts | 337° |
| 2026-04-25 18:14 | 41.13327 | 16.74207 | 147 ft | 22 kts | 70° |
| 2026-04-25 18:14 | 41.13446 | 16.74617 | 144 ft | 81 kts | 69° |
| 2026-04-25 18:14 | 41.13720 | 16.75583 | 140 ft | 138 kts | 69° |
| 2026-04-25 18:15 | 41.14119 | 16.76961 | 247 ft | 173 kts | 69° |
| 2026-04-25 18:15 | 41.14550 | 16.78478 | 852 ft | 177 kts | 68° |
| 2026-04-25 18:15 | 41.14986 | 16.80004 | 1562 ft | 177 kts | 67° |
| 2026-04-25 18:15 | 41.15432 | 16.81541 | 2175 ft | 184 kts | 65° |
| 2026-04-25 18:16 | 41.15755 | 16.82626 | 2410 ft | 197 kts | 65° |
| 2026-04-25 18:16 | 41.16468 | 16.84982 | 2930 ft | 216 kts | 65° |
| 2026-04-25 18:16 | 41.17727 | 16.89077 | 3697 ft | 262 kts | 65° |
| 2026-04-25 18:17 | 41.18421 | 16.91363 | 4372 ft | 270 kts | 66° |
| 2026-04-25 18:17 | 41.19276 | 16.93584 | 5203 ft | 271 kts | 48° |
| 2026-04-25 18:17 | 41.20763 | 16.95034 | 6041 ft | 267 kts | 17° |
| 2026-04-25 18:17 | 41.22583 | 16.95175 | 6835 ft | 265 kts | 345° |
| 2026-04-25 18:18 | 41.24309 | 16.94295 | 7618 ft | 267 kts | 334° |
| 2026-04-25 18:18 | 41.25956 | 16.93122 | 8406 ft | 270 kts | 331° |
| 2026-04-25 18:18 | 41.27627 | 16.91927 | 9163 ft | 275 kts | 333° |
| 2026-04-25 18:18 | 41.29335 | 16.90817 | 9923 ft | 279 kts | 335° |
| 2026-04-25 18:19 | 41.31122 | 16.89775 | 10606 ft | 282 kts | 337° |
| 2026-04-25 18:19 | 41.32955 | 16.88797 | 11284 ft | 286 kts | 339° |
| 2026-04-25 18:19 | 41.34827 | 16.87858 | 11987 ft | 290 kts | 340° |
| 2026-04-25 18:19 | 41.36723 | 16.86894 | 12650 ft | 293 kts | 335° |
| 2026-04-25 18:20 | 41.38465 | 16.85454 | 13277 ft | 301 kts | 321° |
| 2026-04-25 18:20 | 41.39989 | 16.83393 | 13429 ft | 324 kts | 313° |
| 2026-04-25 18:20 | 41.41535 | 16.81086 | 13578 ft | 344 kts | 313° |
| 2026-04-25 18:20 | 41.43150 | 16.78672 | 14000 ft | 353 kts | 313° |
| 2026-04-25 18:21 | 41.44793 | 16.76212 | 14551 ft | 357 kts | 312° |
| 2026-04-25 18:21 | 41.46456 | 16.73733 | 15130 ft | 360 kts | 313° |
| 2026-04-25 18:21 | 41.47567 | 16.72086 | 15521 ft | 362 kts | 313° |
| 2026-04-25 18:21 | 41.49837 | 16.68725 | 16287 ft | 366 kts | 313° |
| 2026-04-25 18:22 | 41.50969 | 16.67048 | 16669 ft | 368 kts | 312° |
| 2026-04-25 18:22 | 41.52107 | 16.65361 | 17047 ft | 370 kts | 312° |
| 2026-04-25 18:22 | 41.54416 | 16.61924 | 17801 ft | 374 kts | 312° |
| 2026-04-25 18:22 | 41.56158 | 16.59318 | 18352 ft | 377 kts | 312° |
| 2026-04-25 18:23 | 41.57908 | 16.56696 | 18826 ft | 380 kts | 312° |
| 2026-04-25 18:23 | 41.59676 | 16.54052 | 19299 ft | 383 kts | 312° |
| 2026-04-25 18:23 | 41.61456 | 16.51390 | 19770 ft | 385 kts | 312° |
| 2026-04-25 18:23 | 41.63249 | 16.48714 | 20232 ft | 388 kts | 312° |
| 2026-04-25 18:24 | 41.65058 | 16.46013 | 20698 ft | 391 kts | 312° |
| 2026-04-25 18:24 | 41.66875 | 16.43298 | 21155 ft | 393 kts | 312° |
| 2026-04-25 18:24 | 41.68702 | 16.40567 | 21606 ft | 396 kts | 312° |
| 2026-04-25 18:24 | 41.70545 | 16.37803 | 22044 ft | 398 kts | 312° |
| 2026-04-25 18:25 | 41.72391 | 16.35030 | 22481 ft | 401 kts | 312° |
| 2026-04-25 18:25 | 41.74250 | 16.32237 | 22905 ft | 403 kts | 312° |
| 2026-04-25 18:25 | 41.76126 | 16.29416 | 23332 ft | 406 kts | 311° |
| 2026-04-25 18:25 | 41.78006 | 16.26584 | 23726 ft | 409 kts | 311° |
| 2026-04-25 18:26 | 41.79898 | 16.23730 | 24072 ft | 411 kts | 311° |
| 2026-04-25 18:26 | 41.81800 | 16.20858 | 24420 ft | 413 kts | 311° |
| 2026-04-25 18:26 | 41.83713 | 16.17967 | 24753 ft | 415 kts | 311° |
| 2026-04-25 18:26 | 41.85635 | 16.15060 | 25088 ft | 418 kts | 311° |
| 2026-04-25 18:27 | 41.87567 | 16.12139 | 25421 ft | 420 kts | 311° |
| 2026-04-25 18:27 | 41.89510 | 16.09193 | 25758 ft | 422 kts | 311° |
| 2026-04-25 18:27 | 41.91453 | 16.06241 | 26085 ft | 424 kts | 311° |
| 2026-04-25 18:27 | 41.93383 | 16.03308 | 26415 ft | 426 kts | 311° |
| 2026-04-25 18:28 | 41.95353 | 16.00322 | 26720 ft | 428 kts | 311° |
| 2026-04-25 18:28 | 41.97330 | 15.97327 | 27044 ft | 430 kts | 311° |
| 2026-04-25 18:28 | 41.99319 | 15.94314 | 27355 ft | 432 kts | 311° |
| 2026-04-25 18:29 | 42.03319 | 15.88238 | 27971 ft | 436 kts | 311° |
| 2026-04-25 18:29 | 42.05330 | 15.85172 | 28269 ft | 438 kts | 311° |
| 2026-04-25 18:30 | 42.11419 | 15.75870 | 29097 ft | 444 kts | 311° |
| 2026-04-25 18:30 | 42.13468 | 15.72743 | 29360 ft | 446 kts | 311° |
| 2026-04-25 18:30 | 42.15523 | 15.69599 | 29637 ft | 448 kts | 310° |
| 2026-04-25 18:30 | 42.17581 | 15.66441 | 29903 ft | 449 kts | 310° |
| 2026-04-25 18:31 | 42.19646 | 15.63268 | 30151 ft | 451 kts | 310° |
| 2026-04-25 18:31 | 42.21720 | 15.60077 | 30354 ft | 453 kts | 310° |
| 2026-04-25 18:31 | 42.23794 | 15.56878 | 30615 ft | 453 kts | 310° |
| 2026-04-25 18:31 | 42.25863 | 15.53686 | 30929 ft | 452 kts | 310° |
| 2026-04-25 18:32 | 42.27934 | 15.50495 | 31228 ft | 452 kts | 310° |
| 2026-04-25 18:32 | 42.29991 | 15.47289 | 31526 ft | 451 kts | 307° |
| 2026-04-25 18:32 | 42.31849 | 15.43889 | 31810 ft | 450 kts | 304° |
| 2026-04-25 18:32 | 42.33674 | 15.40461 | 32106 ft | 449 kts | 304° |
| 2026-04-25 18:33 | 42.35500 | 15.37028 | 32405 ft | 449 kts | 304° |
| 2026-04-25 18:33 | 42.37318 | 15.33611 | 32701 ft | 448 kts | 304° |
| 2026-04-25 18:33 | 42.39136 | 15.30188 | 32994 ft | 448 kts | 304° |
| 2026-04-25 18:33 | 42.40952 | 15.26760 | 33291 ft | 447 kts | 304° |
| 2026-04-25 18:34 | 42.42756 | 15.23351 | 33633 ft | 445 kts | 304° |
| 2026-04-25 18:34 | 42.44557 | 15.19946 | 33929 ft | 445 kts | 304° |
| 2026-04-25 18:34 | 42.46334 | 15.16582 | 34191 ft | 444 kts | 304° |
| 2026-04-25 18:34 | 42.48150 | 15.13147 | 34454 ft | 443 kts | 304° |
| 2026-04-25 18:35 | 42.49945 | 15.09752 | 34719 ft | 443 kts | 304° |
| 2026-04-25 18:35 | 42.51711 | 15.06404 | 34962 ft | 442 kts | 304° |
| 2026-04-25 18:35 | 42.53518 | 15.02967 | 35201 ft | 441 kts | 304° |
| 2026-04-25 18:35 | 42.55296 | 14.99579 | 35423 ft | 441 kts | 304° |
| 2026-04-25 18:36 | 42.57072 | 14.96197 | 35653 ft | 440 kts | 304° |
| 2026-04-25 18:36 | 42.58826 | 14.92861 | 35882 ft | 440 kts | 304° |
| 2026-04-25 18:36 | 42.60597 | 14.89483 | 36081 ft | 439 kts | 304° |
| 2026-04-25 18:36 | 42.62363 | 14.86102 | 36273 ft | 439 kts | 304° |
| 2026-04-25 18:37 | 42.64128 | 14.82719 | 36471 ft | 439 kts | 304° |
| 2026-04-25 18:37 | 42.65887 | 14.79346 | 36660 ft | 438 kts | 304° |
| 2026-04-25 18:37 | 42.67645 | 14.75968 | 36867 ft | 437 kts | 304° |
| 2026-04-25 18:37 | 42.69399 | 14.72597 | 37098 ft | 436 kts | 304° |
| 2026-04-25 18:38 | 42.71144 | 14.69238 | 37290 ft | 435 kts | 304° |
| 2026-04-25 18:38 | 42.72893 | 14.65881 | 37464 ft | 434 kts | 304° |
| 2026-04-25 18:38 | 42.74636 | 14.62534 | 37649 ft | 434 kts | 304° |
| 2026-04-25 18:38 | 42.76376 | 14.59182 | 37811 ft | 434 kts | 304° |
| 2026-04-25 18:39 | 42.78113 | 14.55832 | 37994 ft | 433 kts | 304° |
| 2026-04-25 18:39 | 42.79849 | 14.52473 | 38054 ft | 433 kts | 304° |
| 2026-04-25 18:39 | 42.83311 | 14.45764 | 38053 ft | 433 kts | 304° |
| 2026-04-25 18:40 | 42.86770 | 14.39048 | 38050 ft | 433 kts | 304° |
| 2026-04-25 18:40 | 42.90224 | 14.32333 | 38051 ft | 433 kts | 304° |
| 2026-04-25 18:41 | 42.93679 | 14.25608 | 38057 ft | 433 kts | 304° |
| 2026-04-25 18:41 | 42.97128 | 14.18869 | 38065 ft | 432 kts | 303° |
| 2026-04-25 18:42 | 42.99978 | 14.13277 | 38067 ft | 432 kts | 303° |
| 2026-04-25 18:42 | 43.03988 | 14.05398 | 38068 ft | 432 kts | 303° |
| 2026-04-25 18:43 | 43.07416 | 13.98662 | 38066 ft | 431 kts | 303° |
| 2026-04-25 18:43 | 43.10834 | 13.91927 | 38064 ft | 431 kts | 303° |
| 2026-04-25 18:44 | 43.14249 | 13.85181 | 38061 ft | 431 kts | 303° |
| 2026-04-25 18:44 | 43.17657 | 13.78428 | 38063 ft | 431 kts | 303° |
| 2026-04-25 18:45 | 43.21064 | 13.71664 | 38075 ft | 431 kts | 303° |
| 2026-04-25 18:45 | 43.24439 | 13.64947 | 38076 ft | 430 kts | 303° |
| 2026-04-25 18:46 | 43.27827 | 13.58193 | 38071 ft | 430 kts | 303° |
| 2026-04-25 18:46 | 43.31212 | 13.51426 | 38070 ft | 429 kts | 303° |
| 2026-04-25 18:47 | 43.34586 | 13.44664 | 38067 ft | 429 kts | 303° |
| 2026-04-25 18:47 | 43.37961 | 13.37894 | 38062 ft | 429 kts | 303° |
| 2026-04-25 18:48 | 43.41331 | 13.31119 | 38065 ft | 429 kts | 303° |
| 2026-04-25 18:48 | 43.44688 | 13.24339 | 38063 ft | 429 kts | 303° |
| 2026-04-25 18:49 | 43.48043 | 13.17553 | 38076 ft | 428 kts | 303° |
| 2026-04-25 18:49 | 43.51383 | 13.10784 | 38075 ft | 427 kts | 303° |
| 2026-04-25 18:50 | 43.54716 | 13.04025 | 38081 ft | 426 kts | 302° |
| 2026-04-25 18:50 | 43.58036 | 12.97262 | 38076 ft | 425 kts | 302° |
| 2026-04-25 18:51 | 43.60788 | 12.91647 | 38077 ft | 425 kts | 302° |
| 2026-04-25 18:51 | 43.64631 | 12.83783 | 38076 ft | 425 kts | 302° |
| 2026-04-25 18:52 | 43.67934 | 12.77014 | 38073 ft | 425 kts | 302° |
| 2026-04-25 18:52 | 43.71229 | 12.70246 | 38079 ft | 425 kts | 302° |
| 2026-04-25 18:53 | 43.74521 | 12.63469 | 38075 ft | 424 kts | 302° |
| 2026-04-25 18:53 | 43.77798 | 12.56691 | 38065 ft | 423 kts | 302° |
| 2026-04-25 18:54 | 43.82709 | 12.46537 | 38063 ft | 423 kts | 302° |
| 2026-04-25 18:55 | 43.85967 | 12.39765 | 38062 ft | 422 kts | 302° |
| 2026-04-25 18:55 | 43.89221 | 12.32988 | 38064 ft | 422 kts | 302° |
| 2026-04-25 18:56 | 43.92472 | 12.26205 | 38069 ft | 422 kts | 302° |
| 2026-04-25 18:56 | 43.95719 | 12.19432 | 38068 ft | 422 kts | 302° |
| 2026-04-25 18:57 | 43.98955 | 12.12653 | 38073 ft | 421 kts | 301° |
| 2026-04-25 18:57 | 44.02170 | 12.05886 | 38063 ft | 419 kts | 301° |
| 2026-04-25 18:58 | 44.05361 | 11.99171 | 38058 ft | 419 kts | 301° |
| 2026-04-25 18:58 | 44.10167 | 11.89044 | 38061 ft | 418 kts | 301° |
| 2026-04-25 18:59 | 44.16559 | 11.75463 | 38074 ft | 418 kts | 301° |
| 2026-04-25 19:00 | 44.21308 | 11.65362 | 38109 ft | 418 kts | 301° |
| 2026-04-25 19:01 | 44.26073 | 11.55180 | 38135 ft | 418 kts | 301° |
| 2026-04-25 19:01 | 44.29245 | 11.48385 | 38135 ft | 418 kts | 301° |
| 2026-04-25 19:02 | 44.33997 | 11.38186 | 38066 ft | 418 kts | 301° |
| 2026-04-25 19:03 | 44.37694 | 11.30212 | 38051 ft | 418 kts | 301° |
| 2026-04-25 19:03 | 44.40320 | 11.24544 | 38162 ft | 418 kts | 301° |
| 2026-04-25 19:03 | 44.41898 | 11.21133 | 38163 ft | 418 kts | 301° |
| 2026-04-25 19:04 | 44.46621 | 11.10877 | 38162 ft | 418 kts | 301° |
| 2026-04-25 19:05 | 44.52892 | 10.97193 | 38168 ft | 417 kts | 300° |
| 2026-04-25 19:06 | 44.55924 | 10.90277 | 38150 ft | 416 kts | 299° |
| 2026-04-25 19:06 | 44.60392 | 10.79827 | 38149 ft | 416 kts | 299° |
| 2026-04-25 19:07 | 44.64885 | 10.69390 | 38152 ft | 416 kts | 300° |
| 2026-04-25 19:08 | 44.69374 | 10.58943 | 38134 ft | 417 kts | 300° |
| 2026-04-25 19:09 | 44.74332 | 10.47343 | 38139 ft | 416 kts | 300° |
| 2026-04-25 19:10 | 44.78791 | 10.36859 | 38120 ft | 416 kts | 299° |
| 2026-04-25 19:10 | 44.82257 | 10.28675 | 38010 ft | 416 kts | 300° |
| 2026-04-25 19:11 | 44.85710 | 10.20527 | 38005 ft | 417 kts | 300° |
| 2026-04-25 19:11 | 44.88195 | 10.14648 | 38018 ft | 417 kts | 300° |
| 2026-04-25 19:12 | 44.91155 | 10.07611 | 38030 ft | 417 kts | 299° |
| 2026-04-25 19:12 | 44.94117 | 10.00567 | 38038 ft | 417 kts | 299° |
| 2026-04-25 19:13 | 44.97070 | 9.93514 | 38021 ft | 417 kts | 300° |
| 2026-04-25 19:13 | 45.00026 | 9.86446 | 38015 ft | 417 kts | 300° |
| 2026-04-25 19:14 | 45.02975 | 9.79382 | 38030 ft | 418 kts | 300° |
| 2026-04-25 19:14 | 45.05920 | 9.72302 | 38029 ft | 418 kts | 300° |
| 2026-04-25 19:15 | 45.08863 | 9.65215 | 38026 ft | 418 kts | 300° |
| 2026-04-25 19:15 | 45.11802 | 9.58125 | 38024 ft | 418 kts | 300° |
| 2026-04-25 19:16 | 45.14738 | 9.51030 | 38015 ft | 418 kts | 300° |
| 2026-04-25 19:16 | 45.17665 | 9.43919 | 38015 ft | 418 kts | 299° |
| 2026-04-25 19:17 | 45.20585 | 9.36804 | 38022 ft | 417 kts | 300° |
| 2026-04-25 19:17 | 45.23496 | 9.29694 | 38022 ft | 416 kts | 300° |
| 2026-04-25 19:18 | 45.26403 | 9.22594 | 38015 ft | 416 kts | 300° |
| 2026-04-25 19:18 | 45.29300 | 9.15484 | 38013 ft | 416 kts | 299° |
| 2026-04-25 19:19 | 45.32189 | 9.08362 | 38012 ft | 416 kts | 299° |
| 2026-04-25 19:19 | 45.35074 | 9.01239 | 38011 ft | 416 kts | 299° |
| 2026-04-25 19:20 | 45.37476 | 8.95319 | 38031 ft | 416 kts | 299° |
| 2026-04-25 19:20 | 45.40829 | 8.87017 | 38031 ft | 416 kts | 299° |
| 2026-04-25 19:21 | 45.43722 | 8.79821 | 38043 ft | 416 kts | 299° |
| 2026-04-25 19:21 | 45.48036 | 8.69081 | 38044 ft | 416 kts | 299° |
| 2026-04-25 19:22 | 45.50890 | 8.61954 | 38044 ft | 416 kts | 299° |
| 2026-04-25 19:23 | 45.55184 | 8.51182 | 38040 ft | 417 kts | 299° |
| 2026-04-25 19:23 | 45.59472 | 8.40389 | 38036 ft | 417 kts | 299° |
| 2026-04-25 19:24 | 45.62323 | 8.33191 | 38031 ft | 417 kts | 299° |
| 2026-04-25 19:25 | 45.68009 | 8.18742 | 38057 ft | 417 kts | 299° |
| 2026-04-25 19:25 | 45.70845 | 8.11503 | 38066 ft | 417 kts | 299° |
| 2026-04-25 19:26 | 45.73689 | 8.04264 | 38072 ft | 417 kts | 300° |
| 2026-04-25 19:26 | 45.76805 | 7.97250 | 38095 ft | 417 kts | 304° |
| 2026-04-25 19:27 | 45.79568 | 7.91589 | 38099 ft | 417 kts | 304° |
| 2026-04-25 19:27 | 45.83439 | 7.83624 | 38117 ft | 417 kts | 304° |
| 2026-04-25 19:28 | 45.86672 | 7.76771 | 38114 ft | 417 kts | 303° |
| 2026-04-25 19:28 | 45.89894 | 7.69836 | 38117 ft | 418 kts | 303° |
| 2026-04-25 19:29 | 45.93117 | 7.62887 | 38134 ft | 418 kts | 303° |
| 2026-04-25 19:29 | 45.96349 | 7.55941 | 38136 ft | 418 kts | 303° |
| 2026-04-25 19:30 | 45.99775 | 7.49167 | 38135 ft | 418 kts | 307° |
| 2026-04-25 19:30 | 46.03451 | 7.42714 | 38135 ft | 418 kts | 309° |
| 2026-04-25 19:31 | 46.07148 | 7.36259 | 38124 ft | 418 kts | 308° |
| 2026-04-25 19:31 | 46.10778 | 7.29725 | 38117 ft | 418 kts | 307° |
| 2026-04-25 19:32 | 46.14377 | 7.23143 | 38131 ft | 418 kts | 307° |
| 2026-04-25 19:32 | 46.17367 | 7.17668 | 38120 ft | 418 kts | 307° |
| 2026-04-25 19:33 | 46.21573 | 7.09988 | 38120 ft | 418 kts | 307° |
| 2026-04-25 19:33 | 46.25175 | 7.03400 | 38121 ft | 418 kts | 307° |
| 2026-04-25 19:34 | 46.28777 | 6.96792 | 38123 ft | 418 kts | 307° |
| 2026-04-25 19:34 | 46.32375 | 6.90179 | 38124 ft | 419 kts | 307° |
| 2026-04-25 19:35 | 46.35973 | 6.83553 | 38126 ft | 419 kts | 307° |
| 2026-04-25 19:35 | 46.39568 | 6.76901 | 38115 ft | 419 kts | 307° |
| 2026-04-25 19:36 | 46.43160 | 6.70248 | 38105 ft | 419 kts | 307° |
| 2026-04-25 19:36 | 46.46311 | 6.63167 | 38108 ft | 418 kts | 299° |
| 2026-04-25 19:37 | 46.49190 | 6.55884 | 38112 ft | 419 kts | 299° |
| 2026-04-25 19:37 | 46.52107 | 6.48477 | 38116 ft | 419 kts | 299° |
| 2026-04-25 19:38 | 46.54974 | 6.41195 | 38110 ft | 419 kts | 299° |
| 2026-04-25 19:38 | 46.57870 | 6.33828 | 38113 ft | 420 kts | 299° |
| 2026-04-25 19:39 | 46.60764 | 6.26444 | 38121 ft | 421 kts | 299° |
| 2026-04-25 19:39 | 46.63664 | 6.19052 | 38124 ft | 421 kts | 300° |
| 2026-04-25 19:40 | 46.67342 | 6.12416 | 38133 ft | 422 kts | 310° |
| 2026-04-25 19:40 | 46.71204 | 6.05968 | 38130 ft | 423 kts | 309° |
| 2026-04-25 19:41 | 46.75077 | 5.99498 | 38133 ft | 424 kts | 309° |
| 2026-04-25 19:41 | 46.77663 | 5.95165 | 38133 ft | 424 kts | 309° |
| 2026-04-25 19:42 | 46.82811 | 5.86508 | 38135 ft | 424 kts | 309° |
| 2026-04-25 19:42 | 46.86664 | 5.79992 | 38134 ft | 424 kts | 309° |
| 2026-04-25 19:43 | 46.90507 | 5.73453 | 37262 ft | 429 kts | 309° |
| 2026-04-25 19:43 | 46.92448 | 5.70106 | 36370 ft | 433 kts | 309° |
| 2026-04-25 19:43 | 46.94396 | 5.66726 | 35594 ft | 436 kts | 309° |
| 2026-04-25 19:44 | 46.96353 | 5.63327 | 34833 ft | 437 kts | 309° |
| 2026-04-25 19:44 | 46.98314 | 5.59924 | 34092 ft | 439 kts | 309° |
| 2026-04-25 19:44 | 47.00287 | 5.56501 | 33217 ft | 441 kts | 309° |
| 2026-04-25 19:44 | 47.02271 | 5.53069 | 32397 ft | 441 kts | 309° |
| 2026-04-25 19:45 | 47.04258 | 5.49633 | 31667 ft | 441 kts | 309° |
| 2026-04-25 19:45 | 47.06233 | 5.46212 | 31241 ft | 440 kts | 309° |
| 2026-04-25 19:45 | 47.08204 | 5.42791 | 30816 ft | 438 kts | 309° |
| 2026-04-25 19:45 | 47.10159 | 5.39387 | 30394 ft | 435 kts | 309° |
| 2026-04-25 19:46 | 47.12074 | 5.36049 | 29946 ft | 432 kts | 309° |
| 2026-04-25 19:46 | 47.14031 | 5.32634 | 29464 ft | 429 kts | 309° |
| 2026-04-25 19:46 | 47.15949 | 5.29288 | 29001 ft | 427 kts | 309° |
| 2026-04-25 19:46 | 47.17851 | 5.25972 | 28464 ft | 422 kts | 309° |
| 2026-04-25 19:47 | 47.19730 | 5.22679 | 27870 ft | 418 kts | 308° |
| 2026-04-25 19:47 | 47.21550 | 5.19374 | 27250 ft | 414 kts | 307° |
| 2026-04-25 19:47 | 47.23315 | 5.16049 | 26952 ft | 413 kts | 306° |
| 2026-04-25 19:47 | 47.25056 | 5.12678 | 26697 ft | 413 kts | 306° |
| 2026-04-25 19:48 | 47.26772 | 5.09304 | 26452 ft | 411 kts | 306° |
| 2026-04-25 19:48 | 47.28477 | 5.05930 | 26207 ft | 413 kts | 306° |
| 2026-04-25 19:48 | 47.30207 | 5.02503 | 25954 ft | 419 kts | 306° |
| 2026-04-25 19:48 | 47.31953 | 4.99058 | 25714 ft | 420 kts | 306° |
| 2026-04-25 19:49 | 47.33704 | 4.95617 | 25465 ft | 420 kts | 306° |
| 2026-04-25 19:49 | 47.34272 | 4.94503 | 25388 ft | 419 kts | 306° |
| 2026-04-25 19:49 | 47.37182 | 4.88803 | 24992 ft | 418 kts | 306° |
| 2026-04-25 19:49 | 47.38930 | 4.85373 | 24755 ft | 417 kts | 306° |
| 2026-04-25 19:50 | 47.42397 | 4.78564 | 24290 ft | 414 kts | 306° |
| 2026-04-25 19:50 | 47.44125 | 4.75162 | 24060 ft | 413 kts | 306° |
| 2026-04-25 19:50 | 47.45842 | 4.71773 | 23833 ft | 412 kts | 305° |
| 2026-04-25 19:51 | 47.47553 | 4.68383 | 23576 ft | 411 kts | 305° |
| 2026-04-25 19:51 | 47.49259 | 4.65003 | 23313 ft | 409 kts | 306° |
| 2026-04-25 19:51 | 47.50955 | 4.61639 | 23057 ft | 407 kts | 305° |
| 2026-04-25 19:51 | 47.52640 | 4.58286 | 22780 ft | 405 kts | 305° |
| 2026-04-25 19:52 | 47.54316 | 4.54943 | 22510 ft | 404 kts | 305° |
| 2026-04-25 19:52 | 47.55990 | 4.51600 | 22252 ft | 403 kts | 305° |
| 2026-04-25 19:52 | 47.57661 | 4.48268 | 21990 ft | 402 kts | 306° |
| 2026-04-25 19:52 | 47.59322 | 4.44959 | 21731 ft | 400 kts | 306° |
| 2026-04-25 19:53 | 47.60980 | 4.41654 | 21478 ft | 399 kts | 306° |
| 2026-04-25 19:53 | 47.62629 | 4.38361 | 21228 ft | 397 kts | 306° |
| 2026-04-25 19:53 | 47.64267 | 4.35079 | 20976 ft | 396 kts | 306° |
| 2026-04-25 19:53 | 47.65896 | 4.31808 | 20725 ft | 394 kts | 306° |
| 2026-04-25 19:54 | 47.67524 | 4.28538 | 20471 ft | 393 kts | 306° |
| 2026-04-25 19:54 | 47.69141 | 4.25288 | 20224 ft | 391 kts | 306° |
| 2026-04-25 19:54 | 47.70754 | 4.22044 | 19975 ft | 390 kts | 306° |
| 2026-04-25 19:54 | 47.71298 | 4.20951 | 19899 ft | 389 kts | 306° |
| 2026-04-25 19:55 | 47.73961 | 4.15581 | 19514 ft | 388 kts | 306° |
| 2026-04-25 19:55 | 47.75556 | 4.12355 | 19271 ft | 387 kts | 306° |
| 2026-04-25 19:55 | 47.77146 | 4.09137 | 19031 ft | 385 kts | 306° |
| 2026-04-25 19:55 | 47.78729 | 4.05926 | 18800 ft | 384 kts | 306° |
| 2026-04-25 19:56 | 47.80307 | 4.02728 | 18563 ft | 383 kts | 306° |
| 2026-04-25 19:56 | 47.81859 | 3.99583 | 18312 ft | 382 kts | 306° |
| 2026-04-25 19:56 | 47.83428 | 3.96401 | 18037 ft | 380 kts | 306° |
| 2026-04-25 19:56 | 47.84987 | 3.93234 | 17796 ft | 379 kts | 306° |
| 2026-04-25 19:57 | 47.86540 | 3.90070 | 17525 ft | 378 kts | 306° |
| 2026-04-25 19:57 | 47.88084 | 3.86921 | 17256 ft | 376 kts | 306° |
| 2026-04-25 19:57 | 47.89627 | 3.83775 | 17000 ft | 375 kts | 306° |
| 2026-04-25 19:57 | 47.91165 | 3.80636 | 16747 ft | 374 kts | 306° |
| 2026-04-25 19:58 | 47.92196 | 3.78531 | 16568 ft | 373 kts | 306° |
| 2026-04-25 19:58 | 47.94216 | 3.74405 | 16239 ft | 371 kts | 306° |
| 2026-04-25 19:58 | 47.95246 | 3.72298 | 16075 ft | 370 kts | 306° |
| 2026-04-25 19:58 | 47.96757 | 3.69200 | 15823 ft | 368 kts | 306° |
| 2026-04-25 19:59 | 47.98257 | 3.66119 | 15576 ft | 367 kts | 306° |
| 2026-04-25 19:59 | 47.99756 | 3.63039 | 15331 ft | 365 kts | 306° |
| 2026-04-25 19:59 | 48.01249 | 3.59975 | 15090 ft | 364 kts | 306° |
| 2026-04-25 19:59 | 48.02734 | 3.56925 | 14843 ft | 363 kts | 306° |
| 2026-04-25 20:00 | 48.04217 | 3.53868 | 14607 ft | 362 kts | 306° |
| 2026-04-25 20:00 | 48.05192 | 3.51850 | 14450 ft | 361 kts | 306° |
| 2026-04-25 20:00 | 48.07131 | 3.47828 | 14137 ft | 360 kts | 306° |
| 2026-04-25 20:00 | 48.08592 | 3.44801 | 13895 ft | 358 kts | 306° |
| 2026-04-25 20:01 | 48.11503 | 3.38776 | 13362 ft | 357 kts | 306° |
| 2026-04-25 20:01 | 48.12954 | 3.35766 | 13094 ft | 356 kts | 306° |
| 2026-04-25 20:01 | 48.14401 | 3.32761 | 12841 ft | 355 kts | 306° |
| 2026-04-25 20:02 | 48.15838 | 3.29771 | 12583 ft | 354 kts | 306° |
| 2026-04-25 20:02 | 48.17274 | 3.26777 | 12352 ft | 352 kts | 306° |
| 2026-04-25 20:02 | 48.18700 | 3.23802 | 12277 ft | 352 kts | 306° |
| 2026-04-25 20:02 | 48.20142 | 3.20842 | 12172 ft | 351 kts | 309° |
| 2026-04-25 20:03 | 48.21806 | 3.18164 | 11842 ft | 349 kts | 314° |
| 2026-04-25 20:03 | 48.23460 | 3.15618 | 11690 ft | 334 kts | 314° |
| 2026-04-25 20:03 | 48.25060 | 3.13164 | 11417 ft | 322 kts | 314° |
| 2026-04-25 20:03 | 48.26585 | 3.10822 | 11076 ft | 306 kts | 315° |
| 2026-04-25 20:04 | 48.28035 | 3.08586 | 10703 ft | 293 kts | 315° |
| 2026-04-25 20:04 | 48.29445 | 3.06406 | 10268 ft | 289 kts | 315° |
| 2026-04-25 20:04 | 48.30831 | 3.04259 | 10160 ft | 285 kts | 315° |
| 2026-04-25 20:04 | 48.32213 | 3.02120 | 10170 ft | 285 kts | 315° |
| 2026-04-25 20:05 | 48.33596 | 2.99982 | 10166 ft | 285 kts | 315° |
| 2026-04-25 20:05 | 48.34979 | 2.97842 | 10169 ft | 285 kts | 315° |
| 2026-04-25 20:05 | 48.36360 | 2.95700 | 10177 ft | 286 kts | 315° |
| 2026-04-25 20:05 | 48.37741 | 2.93555 | 10176 ft | 286 kts | 315° |
| 2026-04-25 20:06 | 48.39122 | 2.91407 | 10177 ft | 286 kts | 314° |
| 2026-04-25 20:06 | 48.40504 | 2.89252 | 10180 ft | 286 kts | 314° |
| 2026-04-25 20:06 | 48.41884 | 2.87105 | 10175 ft | 284 kts | 315° |
| 2026-04-25 20:06 | 48.43256 | 2.84971 | 10176 ft | 284 kts | 314° |
| 2026-04-25 20:07 | 48.44556 | 2.82723 | 9964 ft | 285 kts | 304° |
| 2026-04-25 20:07 | 48.45410 | 2.80021 | 9513 ft | 288 kts | 287° |
| 2026-04-25 20:07 | 48.45715 | 2.77048 | 9098 ft | 288 kts | 273° |
| 2026-04-25 20:07 | 48.45791 | 2.74037 | 8682 ft | 288 kts | 274° |
| 2026-04-25 20:08 | 48.45875 | 2.71026 | 8275 ft | 287 kts | 274° |
| 2026-04-25 20:08 | 48.45961 | 2.68043 | 7950 ft | 283 kts | 274° |
| 2026-04-25 20:08 | 48.46049 | 2.65125 | 7784 ft | 273 kts | 275° |
| 2026-04-25 20:08 | 48.46142 | 2.62318 | 7647 ft | 263 kts | 275° |
| 2026-04-25 20:09 | 48.46265 | 2.59632 | 7525 ft | 252 kts | 276° |
| 2026-04-25 20:09 | 48.46398 | 2.57027 | 7405 ft | 248 kts | 277° |
| 2026-04-25 20:09 | 48.46534 | 2.54443 | 7299 ft | 247 kts | 277° |
| 2026-04-25 20:09 | 48.46670 | 2.51873 | 7188 ft | 246 kts | 277° |
| 2026-04-25 20:10 | 48.46801 | 2.49335 | 6955 ft | 246 kts | 276° |
| 2026-04-25 20:10 | 48.46930 | 2.46735 | 6788 ft | 245 kts | 276° |
| 2026-04-25 20:10 | 48.47050 | 2.44212 | 6602 ft | 245 kts | 276° |
| 2026-04-25 20:10 | 48.47174 | 2.41625 | 6390 ft | 244 kts | 275° |
| 2026-04-25 20:11 | 48.47296 | 2.39078 | 6180 ft | 243 kts | 275° |
| 2026-04-25 20:11 | 48.47416 | 2.36545 | 5972 ft | 242 kts | 275° |
| 2026-04-25 20:11 | 48.47533 | 2.34021 | 5774 ft | 241 kts | 276° |
| 2026-04-25 20:11 | 48.47651 | 2.31512 | 5571 ft | 240 kts | 276° |
| 2026-04-25 20:12 | 48.47766 | 2.29041 | 5412 ft | 239 kts | 275° |
| 2026-04-25 20:12 | 48.47883 | 2.26514 | 5286 ft | 238 kts | 275° |
| 2026-04-25 20:12 | 48.47995 | 2.24054 | 5162 ft | 238 kts | 276° |
| 2026-04-25 20:12 | 48.48072 | 2.22379 | 5068 ft | 238 kts | 276° |
| 2026-04-25 20:13 | 48.48222 | 2.19100 | 4917 ft | 236 kts | 276° |
| 2026-04-25 20:13 | 48.48335 | 2.16627 | 4812 ft | 236 kts | 276° |
| 2026-04-25 20:13 | 48.48447 | 2.14157 | 4728 ft | 236 kts | 275° |
| 2026-04-25 20:13 | 48.48559 | 2.11691 | 4635 ft | 236 kts | 275° |
| 2026-04-25 20:14 | 48.48671 | 2.09212 | 4564 ft | 237 kts | 274° |
| 2026-04-25 20:14 | 48.48781 | 2.06740 | 4490 ft | 236 kts | 275° |
| 2026-04-25 20:14 | 48.48890 | 2.04265 | 4413 ft | 236 kts | 274° |
| 2026-04-25 20:14 | 48.49004 | 2.01800 | 4338 ft | 236 kts | 277° |
| 2026-04-25 20:15 | 48.49509 | 1.99474 | 4258 ft | 234 kts | 298° |
| 2026-04-25 20:15 | 48.50316 | 1.97347 | 4186 ft | 234 kts | 302° |
| 2026-04-25 20:15 | 48.51163 | 1.95248 | 4085 ft | 234 kts | 304° |
| 2026-04-25 20:15 | 48.52324 | 1.93601 | 3992 ft | 230 kts | 336° |
| 2026-04-25 20:16 | 48.53866 | 1.93062 | 4007 ft | 229 kts | 4° |
| 2026-04-25 20:16 | 48.55372 | 1.93756 | 4005 ft | 229 kts | 28° |
| 2026-04-25 20:16 | 48.56747 | 1.94962 | 4009 ft | 229 kts | 31° |
| 2026-04-25 20:16 | 48.58097 | 1.96224 | 4010 ft | 225 kts | 32° |
| 2026-04-25 20:17 | 48.59375 | 1.97439 | 4008 ft | 210 kts | 35° |
| 2026-04-25 20:17 | 48.60332 | 1.99004 | 4006 ft | 196 kts | 60° |
| 2026-04-25 20:17 | 48.60965 | 2.00772 | 4036 ft | 189 kts | 60° |
| 2026-04-25 20:17 | 48.61591 | 2.02511 | 4015 ft | 188 kts | 60° |
| 2026-04-25 20:18 | 48.62212 | 2.04243 | 4003 ft | 187 kts | 60° |
| 2026-04-25 20:18 | 48.62832 | 2.05972 | 3986 ft | 188 kts | 61° |
| 2026-04-25 20:18 | 48.63454 | 2.07711 | 3822 ft | 188 kts | 59° |
| 2026-04-25 20:18 | 48.64074 | 2.09444 | 3587 ft | 187 kts | 60° |
| 2026-04-25 20:19 | 48.64691 | 2.11168 | 3368 ft | 185 kts | 60° |
| 2026-04-25 20:19 | 48.65300 | 2.12872 | 3121 ft | 184 kts | 60° |
| 2026-04-25 20:19 | 48.65906 | 2.14567 | 2868 ft | 183 kts | 61° |
| 2026-04-25 20:19 | 48.66506 | 2.16250 | 2626 ft | 180 kts | 61° |
| 2026-04-25 20:20 | 48.67091 | 2.17893 | 2391 ft | 172 kts | 60° |
| 2026-04-25 20:20 | 48.67627 | 2.19398 | 2175 ft | 153 kts | 60° |
| 2026-04-25 20:20 | 48.68105 | 2.20742 | 1980 ft | 139 kts | 59° |
| 2026-04-25 20:20 | 48.68558 | 2.22017 | 1774 ft | 137 kts | 60° |
| 2026-04-25 20:21 | 48.69004 | 2.23273 | 1574 ft | 134 kts | 60° |
| 2026-04-25 20:21 | 48.69444 | 2.24513 | 1396 ft | 134 kts | 61° |
| 2026-04-25 20:21 | 48.69881 | 2.25751 | 1226 ft | 134 kts | 60° |
| 2026-04-25 20:21 | 48.70322 | 2.26993 | 1060 ft | 134 kts | 59° |
| 2026-04-25 20:22 | 48.70767 | 2.28220 | 897 ft | 133 kts | 60° |
| 2026-04-25 20:22 | 48.70908 | 2.28643 | 838 ft | 133 kts | 61° |
| 2026-04-25 20:22 | 48.71645 | 2.30690 | 525 ft | 133 kts | 59° |
| 2026-04-25 20:22 | 48.72083 | 2.31918 | 352 ft | 131 kts | 59° |
| 2026-04-25 20:23 | 48.72493 | 2.33087 | 295 ft | 111 kts | 61° |
| 2026-04-25 20:23 | 48.72767 | 2.33859 | 297 ft | 64 kts | 62° |
| 2026-04-25 20:23 | 48.72928 | 2.34322 | 293 ft | 35 kts | 63° |
| 2026-04-25 20:23 | 48.72995 | 2.34601 | 293 ft | 23 kts | 80° |
| 2026-04-25 20:24 | 48.73018 | 2.34834 | 292 ft | 21 kts | 82° |
| 2026-04-25 20:24 | 48.73034 | 2.35001 | 291 ft | 11 kts | 82° |
| 2026-04-25 20:24 | 48.73041 | 2.35122 | 291 ft | 12 kts | 89° |
| 2026-04-25 20:24 | 48.73009 | 2.35235 | 293 ft | 11 kts | 129° |
| 2026-04-25 20:25 | 48.72958 | 2.35298 | 296 ft | 9 kts | 153° |
| 2026-04-25 20:25 | 48.72905 | 2.35328 | 294 ft | 7 kts | 142° |
| 2026-04-25 20:25 | 48.72889 | 2.35397 | 295 ft | 7 kts | 113° |
| 2026-04-25 20:25 | 48.72853 | 2.35432 | 292 ft | 7 kts | 162° |
| 2026-04-25 20:26 | 48.72800 | 2.35455 | 294 ft | 8 kts | 164° |
| 2026-04-25 20:26 | 48.72737 | 2.35481 | 292 ft | 11 kts | 165° |
| 2026-04-25 20:26 | 48.72669 | 2.35509 | 296 ft | 10 kts | 164° |
| 2026-04-25 20:26 | 48.72606 | 2.35537 | 293 ft | 9 kts | 164° |
| 2026-04-25 20:27 | 48.72550 | 2.35560 | 293 ft | 8 kts | 164° |
| 2026-04-25 20:27 | 48.72499 | 2.35582 | 293 ft | 7 kts | 164° |
| 2026-04-25 20:27 | 48.72463 | 2.35635 | 291 ft | 7 kts | 109° |
| 2026-04-25 20:27 | 48.72469 | 2.35702 | 294 ft | 6 kts | 69° |
| 2026-04-25 20:28 | 48.72504 | 2.35708 | 292 ft | 8 kts | 343° |
| 2026-04-25 20:28 | 48.72577 | 2.35676 | 292 ft | 12 kts | 344° |
| 2026-04-25 20:28 | 48.72604 | 2.35664 | 293 ft | 13 kts | 344° |
| 2026-04-25 20:28 | 48.72755 | 2.35614 | 293 ft | 10 kts | 20° |
| 2026-04-25 20:29 | 48.72785 | 2.35713 | 292 ft | 11 kts | 74° |
| 2026-04-25 20:29 | 48.72798 | 2.35787 | 294 ft | 3 kts | 74° |
| 2026-04-25 20:29 | 48.72797 | 2.35806 | 291 ft | 2 kts | 112° |
| 2026-04-25 20:29 | 48.72789 | 2.35823 | 295 ft | 1 kts | 131° |
| 2026-04-25 20:30 | 48.72782 | 2.35832 | 294 ft | 2 kts | 138° |
| 2026-04-25 20:30 | 48.72776 | 2.35839 | 292 ft | 1 kts | 140° |
| 2026-04-25 20:30 | 48.72775 | 2.35841 | 293 ft | 0 kts | 140° |